Wednesday, November 22, 2017, 9:02 AM GMT
Back to Local

CZBF, Bathurst Airport Aviation Weather Reporting Station

Location: , , Canada Lat: 47.633
Local Time: 9:02 AM GMT ( 9:02 GMT) Lon: -65.75
Time Zone: GMT Elev: 193 ft

Show me the last for .
Show Decoded

2017-11-22 08:00 METAR CZBF 220800Z 24003KT 15SM SKC M08/M09 A2996 RMK SLP151 =
2017-11-22 07:00 METAR CZBF 220700Z 25003KT 15SM SKC M07/M08 A2995 RMK SLP149 =
2017-11-22 06:00 METAR CZBF 220600Z 24002KT 15SM SKC M07/M09 A2995 RMK SLP148 =
2017-11-22 05:00 METAR CZBF 220500Z 00000KT 15SM SKC M06/M08 A2995 RMK SLP146 =
2017-11-22 04:00 METAR CZBF 220400Z VRB02KT 15SM FEW240 M05/M07 A2994 RMK CI1 SLP143 =
2017-11-22 03:00 METAR CZBF 220300Z 11003KT 15SM SCT240 M03/M08 A2993 RMK CI3 SLP142 =
2017-11-22 02:00 METAR CZBF 220200Z 00000KT 15SM SCT012 BKN240 M02/M08 A2995 RMK SC3CI3 SLP149 =
2017-11-22 01:00 METAR CZBF 220100Z 15003KT 15SM OVC012 M02/M09 A2995 RMK SC8 SLP146 =
2017-11-22 00:53 METAR CZBF 220053Z 16003KT 15SM OVC013 M02/M09 A2995 RMK SC8 SLP146 =
2017-11-22 00:00 METAR CZBF 220000Z 13003KT 15SM OVC015 M03/M10 A2997 RMK SC8 SLP153 =
2017-11-21 23:00 METAR CZBF 212300Z 19003KT 140V210 15SM BKN020 M03/M10 A2998 RMK SC7 SLP158 =
2017-11-21 22:00 METAR CZBF 212200Z 15005KT 15SM FEW220 M03/M11 A2998 RMK CI2 SLP156 =
2017-11-21 21:00 METAR CZBF 212100Z 17006KT 15SM FEW220 M02/M12 A2998 RMK CI2 SLP157 =
2017-11-21 20:00 METAR CZBF 212000Z 17006KT 130V200 15SM FEW150 BKN220 M01/M11 A2996 RMK AC1CC7
                 AC TR SLP150 =
2017-11-21 19:00 METAR CZBF 211900Z 14003KT 100V170 15SM BKN045 M01/M12 A2996 RMK SC7 SLP152 =
2017-11-21 18:00 METAR CZBF 211800Z 19007KT 15SM BKN050 M02/M14 A2997 RMK SC7 SLP153 =
2017-11-21 17:00 METAR CZBF 211700Z 21006KT 170V260 15SM FEW150 FEW220 M02/M13 A2996 RMK AC1CI1
                 SLP152 =
2017-11-21 16:00 METAR CZBF 211600Z 26007KT 210V290 15SM FEW170 M04/M14 A2997 RMK AC1 SLP155 =
2017-11-21 15:00 METAR CZBF 211500Z 24013KT 15SM FEW160 FEW220 M06/M14 A3000 RMK AC1CI1 AC TR
                 SLP163 =
2017-11-21 14:00 METAR CZBF 211400Z 26010KT 15SM FEW240 M07/M14 A2999 RMK CI1 SLP161 =
2017-11-21 13:00 METAR CZBF 211300Z 24005KT 200V280 15SM FEW240 M09/M14 A2998 RMK CI1 SLP160 =
2017-11-21 12:00 METAR CZBF 211200Z 25006KT 15SM FEW030 FEW240 M10/M14 A2996 RMK SC1CI1 SC TR CI
                 TR SLP152 =
2017-11-21 11:00 METAR CZBF 211100Z 25009KT 15SM FEW030 M09/M14 A2993 RMK SC1 SC TR SLP143 =
2017-11-21 10:00 METAR CZBF 211000Z 28009KT 15SM FEW025 M09/M14 A2990 RMK SC1 SC TR SLP131 =

Support USWX by starting your Amazon purchase here.